Time;durP1;ratioP1;P1;durP2;ratioP2;P2;SDS_P1;SDS_P2;PMS_P1;PMS_P2;Temp;Humidity;BMP_temperature;BMP_pressure;BME280_temperature;BME280_humidity;BME280_pressure;Samples;Min_cycle;Max_cycle;Signal;HPM_P1;HPM_P2
2021/10/12 00:00:56;;;;;;;28.13;19.20;;;;;;;8.79;100.00;98917.66;5074466;28;20311;-66
2021/10/12 00:03:22;;;;;;;28.47;20.43;;;;;;;8.80;100.00;98910.59;5074425;28;20214;-66
2021/10/12 00:05:49;;;;;;;28.83;19.27;;;;;;;8.81;100.00;98914.97;5072717;28;20215;-66
2021/10/12 00:08:15;;;;;;;29.13;20.57;;;;;;;8.84;100.00;98906.88;5074248;28;20220;-66
2021/10/12 00:10:42;;;;;;;29.83;20.03;;;;;;;8.84;100.00;98909.53;5074119;28;20244;-66
2021/10/12 00:13:09;;;;;;;33.77;21.80;;;;;;;8.86;100.00;98910.28;5074396;28;20578;-66
2021/10/12 00:15:35;;;;;;;27.67;19.77;;;;;;;8.87;100.00;98898.84;5073785;28;20242;-66
2021/10/12 00:18:03;;;;;;;26.60;19.47;;;;;;;8.87;100.00;98909.38;5073764;28;20594;-66
2021/10/12 00:20:30;;;;;;;31.03;20.70;;;;;;;8.87;100.00;98898.84;5073869;28;20220;-66
2021/10/12 00:22:56;;;;;;;32.23;20.10;;;;;;;8.85;100.00;98901.53;5073976;28;20212;-66
2021/10/12 00:25:23;;;;;;;30.43;19.67;;;;;;;8.87;100.00;98912.03;5073745;28;20217;-66
2021/10/12 00:27:50;;;;;;;32.40;20.27;;;;;;;8.88;100.00;98906.66;5073476;28;20697;-65
2021/10/12 00:30:16;;;;;;;31.87;20.47;;;;;;;8.85;100.00;98903.31;5073374;28;20312;-66
2021/10/12 00:32:43;;;;;;;27.50;19.40;;;;;;;8.83;100.00;98902.53;5071483;28;20230;-66
2021/10/12 00:35:11;;;;;;;28.63;19.13;;;;;;;8.78;100.00;98900.16;5073265;28;20209;-66
2021/10/12 00:37:37;;;;;;;28.73;19.20;;;;;;;8.78;100.00;98900.16;5073478;28;20223;-66
2021/10/12 00:40:05;;;;;;;28.33;20.07;;;;;;;8.76;100.00;98896.72;5073472;28;20221;-66
2021/10/12 00:42:31;;;;;;;30.60;21.43;;;;;;;8.77;100.00;98893.19;5073533;28;20222;-66
2021/10/12 00:44:58;;;;;;;29.27;18.90;;;;;;;8.76;100.00;98893.25;5073389;28;20213;-66
2021/10/12 00:47:24;;;;;;;29.07;19.60;;;;;;;8.77;100.00;98895.81;5073471;28;20225;-66
2021/10/12 00:49:51;;;;;;;31.23;19.47;;;;;;;8.78;100.00;98886.09;5073436;28;20225;-66
2021/10/12 00:52:19;;;;;;;28.97;19.83;;;;;;;8.75;100.00;98889.75;5073422;28;20220;-66
2021/10/12 00:54:45;;;;;;;30.80;19.87;;;;;;;8.72;100.00;98884.63;5073416;28;20217;-66
2021/10/12 00:57:13;;;;;;;30.70;19.53;;;;;;;8.78;100.00;98888.75;5072180;28;20222;-65
2021/10/12 00:59:40;;;;;;;29.27;19.10;;;;;;;8.80;100.00;98886.88;5072585;28;20225;-66
2021/10/12 01:02:07;;;;;;;27.83;18.40;;;;;;;8.78;100.00;98884.34;5073269;28;20215;-66
2021/10/12 01:04:33;;;;;;;29.33;18.73;;;;;;;8.79;100.00;98885.16;5072860;28;20577;-66
2021/10/12 01:07:00;;;;;;;29.37;19.77;;;;;;;8.80;100.00;98885.09;5073004;28;20213;-66
2021/10/12 01:09:28;;;;;;;29.70;18.77;;;;;;;8.84;100.00;98884.03;5072912;28;20701;-66
2021/10/12 01:11:54;;;;;;;29.13;18.67;;;;;;;8.83;100.00;98870.91;5071494;28;20613;-66
2021/10/12 01:14:21;;;;;;;31.97;19.87;;;;;;;8.87;100.00;98880.38;5072068;28;20215;-66
2021/10/12 01:16:47;;;;;;;29.90;19.70;;;;;;;8.84;100.00;98873.47;5073037;28;20213;-66
2021/10/12 01:19:16;;;;;;;30.37;19.93;;;;;;;8.86;100.00;98876.00;5073109;28;20219;-66
2021/10/12 01:21:46;;;;;;;29.10;19.23;;;;;;;8.88;100.00;98874.19;5072654;28;20249;-66
2021/10/12 01:24:14;;;;;;;30.37;19.67;;;;;;;8.89;100.00;98865.34;5071270;28;20215;-66
2021/10/12 01:26:41;;;;;;;31.73;21.00;;;;;;;8.92;100.00;98863.38;5072907;28;20217;-66
2021/10/12 01:29:08;;;;;;;28.60;18.87;;;;;;;8.96;100.00;98864.09;5072767;28;20215;-66
2021/10/12 01:31:35;;;;;;;29.73;18.90;;;;;;;8.99;100.00;98861.31;5072441;28;20243;-66
2021/10/12 01:34:02;;;;;;;28.17;18.97;;;;;;;8.99;100.00;98856.03;5072564;28;20680;-66
2021/10/12 01:36:29;;;;;;;27.97;18.70;;;;;;;8.96;100.00;98856.19;5073038;28;20211;-66
2021/10/12 01:38:57;;;;;;;25.60;18.43;;;;;;;8.95;100.00;98859.75;5072653;28;20221;-66
2021/10/12 01:41:23;;;;;;;27.70;19.10;;;;;;;8.90;100.00;98843.31;5072707;28;20207;-66
2021/10/12 01:43:50;;;;;;;28.40;18.20;;;;;;;8.85;100.00;98842.69;5072865;28;20210;-66
2021/10/12 01:46:16;;;;;;;28.20;18.53;;;;;;;8.83;100.00;98834.00;5076745;28;20221;-66
2021/10/12 01:48:43;;;;;;;26.33;17.90;;;;;;;8.83;100.00;98844.56;5077037;28;20213;-66
2021/10/12 01:51:09;;;;;;;25.93;18.00;;;;;;;8.86;100.00;98839.97;5075203;28;20233;-66
2021/10/12 01:53:36;;;;;;;28.80;18.37;;;;;;;8.89;100.00;98838.97;5076749;28;20645;-66
2021/10/12 01:56:04;;;;;;;27.03;17.43;;;;;;;8.89;100.00;98833.69;5076769;28;20214;-66
2021/10/12 01:58:30;;;;;;;28.50;18.53;;;;;;;8.90;100.00;98835.41;5076390;28;20214;-66
2021/10/12 02:00:57;;;;;;;27.30;16.97;;;;;;;8.90;100.00;98828.34;5076536;28;20216;-66
2021/10/12 02:03:23;;;;;;;24.07;17.07;;;;;;;8.94;100.00;98834.31;5076390;28;20226;-66
2021/10/12 02:05:51;;;;;;;30.10;18.93;;;;;;;8.94;100.00;98831.69;5076709;28;20212;-66
2021/10/12 02:08:17;;;;;;;29.23;18.13;;;;;;;8.98;100.00;98836.72;5076603;28;20219;-66
2021/10/12 02:10:43;;;;;;;28.07;18.30;;;;;;;8.99;100.00;98824.41;5076463;28;20238;-66
2021/10/12 02:13:12;;;;;;;27.40;18.07;;;;;;;8.97;100.00;98820.97;5076469;28;20213;-66
2021/10/12 02:15:38;;;;;;;28.00;18.07;;;;;;;9.02;100.00;98818.94;5074584;28;20606;-66
2021/10/12 02:18:05;;;;;;;27.30;17.80;;;;;;;9.06;100.00;98820.50;5076270;28;20668;-66
2021/10/12 02:20:31;;;;;;;27.20;18.67;;;;;;;9.13;100.00;98811.34;5076453;28;20216;-65
2021/10/12 02:22:58;;;;;;;27.97;17.93;;;;;;;9.14;100.00;98802.47;5076247;28;20214;-66
2021/10/12 02:25:24;;;;;;;24.83;17.17;;;;;;;9.14;100.00;98800.72;5076198;28;20582;-66
2021/10/12 02:27:51;;;;;;;28.93;19.87;;;;;;;9.22;100.00;98801.16;5076069;28;20218;-66
2021/10/12 02:30:19;;;;;;;29.17;19.60;;;;;;;9.18;100.00;98809.31;5075764;28;20223;-66
2021/10/12 02:32:45;;;;;;;29.47;19.63;;;;;;;9.03;100.00;98800.41;5076027;28;20253;-66
2021/10/12 02:35:12;;;;;;;30.43;20.73;;;;;;;8.89;100.00;98802.06;5075738;28;20222;-66
2021/10/12 02:37:38;;;;;;;27.40;19.83;;;;;;;8.69;100.00;98804.88;5075741;28;20221;-66
2021/10/12 02:40:06;;;;;;;28.70;20.53;;;;;;;8.55;100.00;98795.03;5075753;28;20293;-66
2021/10/12 02:42:32;;;;;;;30.90;21.10;;;;;;;8.45;100.00;98790.31;5074110;28;20223;-66
2021/10/12 02:44:58;;;;;;;27.80;20.23;;;;;;;8.41;100.00;98784.34;5075636;28;20586;-66
2021/10/12 02:47:26;;;;;;;32.90;21.03;;;;;;;8.41;100.00;98775.59;5075503;28;20227;-65
2021/10/12 02:49:53;;;;;;;32.57;20.53;;;;;;;8.44;100.00;98778.91;5075726;28;20589;-66
2021/10/12 02:52:19;;;;;;;28.93;18.80;;;;;;;8.53;100.00;98772.31;5075572;28;20238;-66
2021/10/12 02:54:46;;;;;;;28.67;19.90;;;;;;;8.62;100.00;98763.97;5075661;28;20214;-65
2021/10/12 02:57:12;;;;;;;28.63;18.60;;;;;;;8.71;100.00;98761.72;5074392;28;20215;-66
2021/10/12 02:59:39;;;;;;;31.77;19.87;;;;;;;8.79;100.00;98763.94;5075631;28;20228;-66
2021/10/12 03:02:05;;;;;;;28.00;18.37;;;;;;;8.85;100.00;98763.59;5075539;28;20218;-65
2021/10/12 03:04:33;;;;;;;27.13;18.50;;;;;;;8.91;100.00;98748.34;5075519;28;20241;-65
2021/10/12 03:06:59;;;;;;;27.57;18.87;;;;;;;8.93;100.00;98745.63;5075420;28;20218;-66
2021/10/12 03:09:26;;;;;;;28.87;18.37;;;;;;;8.98;100.00;98743.56;5073368;28;20221;-65
2021/10/12 03:11:52;;;;;;;28.23;18.53;;;;;;;8.98;100.00;98733.88;5075044;28;20718;-66
2021/10/12 03:14:19;;;;;;;29.43;19.17;;;;;;;9.03;100.00;98731.88;5075074;28;20224;-66
2021/10/12 03:16:45;;;;;;;26.13;18.30;;;;;;;9.04;100.00;98727.44;5075159;28;20223;-66
2021/10/12 03:19:12;;;;;;;26.90;17.50;;;;;;;9.06;100.00;98733.50;5075177;28;20225;-65
2021/10/12 03:21:47;;;;;;;27.20;19.30;;;;;;;9.07;100.00;98728.13;5075086;28;20294;-65
2021/10/12 03:24:14;;;;;;;25.63;18.07;;;;;;;9.08;100.00;98723.69;5075071;28;20223;-66
2021/10/12 03:26:40;;;;;;;26.43;17.90;;;;;;;9.09;100.00;98721.00;5075018;28;20218;-65
2021/10/12 03:29:07;;;;;;;26.13;18.57;;;;;;;9.03;100.00;98704.63;5074995;28;20225;-66
2021/10/12 03:31:33;;;;;;;25.57;18.33;;;;;;;8.95;100.00;98696.28;5074926;28;20593;-65
2021/10/12 03:34:00;;;;;;;27.27;17.27;;;;;;;8.89;100.00;98712.44;5073047;28;20209;-66
2021/10/12 03:36:26;;;;;;;27.80;19.03;;;;;;;8.94;100.00;98715.69;5074986;28;20225;-66
2021/10/12 03:38:54;;;;;;;26.40;17.17;;;;;;;9.02;100.00;98714.34;5074881;28;20230;-65
2021/10/12 03:41:20;;;;;;;27.03;17.67;;;;;;;9.09;100.00;98720.13;5074932;28;20608;-66
2021/10/12 03:43:47;;;;;;;28.93;18.83;;;;;;;9.14;100.00;98718.97;5074666;28;20221;-66
2021/10/12 03:46:13;;;;;;;24.87;17.00;;;;;;;9.18;100.00;98724.91;5074709;28;20601;-66
2021/10/12 03:48:40;;;;;;;26.93;17.73;;;;;;;9.21;100.00;98717.69;5074614;28;20214;-66
2021/10/12 03:51:07;;;;;;;26.70;17.57;;;;;;;9.26;100.00;98722.72;5074330;28;20210;-66
2021/10/12 03:53:34;;;;;;;22.43;15.77;;;;;;;9.30;100.00;98718.97;5074356;28;20212;-66
2021/10/12 03:56:02;;;;;;;21.67;15.70;;;;;;;9.31;100.00;98713.59;5074455;28;20222;-66
2021/10/12 03:58:28;;;;;;;25.87;16.80;;;;;;;9.38;100.00;98706.22;5070313;28;20664;-65
2021/10/12 04:00:54;;;;;;;24.37;16.70;;;;;;;9.41;100.00;98706.03;5072707;28;20236;-66
2021/10/12 04:03:21;;;;;;;23.43;15.50;;;;;;;9.43;100.00;98698.91;5074426;28;20213;-66
2021/10/12 04:05:48;;;;;;;24.00;16.17;;;;;;;9.47;100.00;98705.69;5074328;28;20581;-66
2021/10/12 04:08:15;;;;;;;22.80;16.20;;;;;;;9.48;100.00;98699.50;5074047;28;20214;-66
2021/10/12 04:10:41;;;;;;;22.43;15.50;;;;;;;9.53;100.00;98710.63;5071739;28;20214;-66
2021/10/12 04:13:10;;;;;;;26.83;17.07;;;;;;;9.52;100.00;98704.50;5073909;28;20246;-66
2021/10/12 04:15:36;;;;;;;25.03;16.60;;;;;;;9.51;100.00;98708.09;5074106;28;20245;-66
2021/10/12 04:18:03;;;;;;;22.33;15.23;;;;;;;9.55;100.00;98703.50;5074080;28;20212;-66
2021/10/12 04:20:29;;;;;;;26.43;16.67;;;;;;;9.57;100.00;98707.75;5073745;28;20211;-66
2021/10/12 04:22:57;;;;;;;24.37;15.57;;;;;;;9.54;100.00;98707.06;5074072;28;20232;-66
2021/10/12 04:25:24;;;;;;;21.30;14.73;;;;;;;9.48;100.00;98712.69;5072885;28;20224;-66
2021/10/12 04:27:51;;;;;;;21.30;15.20;;;;;;;9.42;100.00;98708.59;5073533;28;20216;-64
2021/10/12 04:30:19;;;;;;;23.93;15.50;;;;;;;9.37;100.00;98709.78;5073803;28;20656;-63
2021/10/12 04:32:46;;;;;;;24.17;16.30;;;;;;;9.29;100.00;98707.56;5073415;28;20251;-64
2021/10/12 04:35:12;;;;;;;25.70;15.77;;;;;;;9.21;100.00;98704.50;5073985;28;20214;-62
2021/10/12 04:37:39;;;;;;;25.87;17.00;;;;;;;9.15;100.00;98709.25;5073605;28;20209;-62
2021/10/12 04:40:06;;;;;;;23.07;15.13;;;;;;;9.08;100.00;98705.25;5073432;28;20683;-62
2021/10/12 04:42:35;;;;;;;26.77;16.87;;;;;;;9.04;100.00;98701.91;5073745;28;20672;-63
2021/10/12 04:45:01;;;;;;;25.87;16.00;;;;;;;9.02;100.00;98702.94;5073457;28;20212;-62
2021/10/12 04:47:29;;;;;;;27.20;17.07;;;;;;;9.01;100.00;98695.97;5073332;28;20214;-62
2021/10/12 04:49:55;;;;;;;25.80;16.87;;;;;;;8.99;100.00;98701.31;5073266;28;20309;-62
2021/10/12 04:52:22;;;;;;;24.23;16.63;;;;;;;8.98;100.00;98696.13;5071789;28;20579;-62
2021/10/12 04:54:48;;;;;;;26.50;17.80;;;;;;;8.97;100.00;98694.41;5073380;28;20223;-62
2021/10/12 04:57:15;;;;;;;25.00;17.33;;;;;;;8.97;100.00;98697.06;5073119;28;20218;-61
2021/10/12 04:59:42;;;;;;;27.67;17.90;;;;;;;8.95;100.00;98691.03;5073254;28;20225;-60
2021/10/12 05:02:08;;;;;;;26.20;16.70;;;;;;;8.89;100.00;98697.50;5072945;28;20217;-60
2021/10/12 05:04:36;;;;;;;29.83;18.27;;;;;;;8.86;100.00;98696.78;5073372;28;20218;-60
2021/10/12 05:07:03;;;;;;;27.23;17.83;;;;;;;8.87;100.00;98693.22;5073015;28;20215;-60
2021/10/12 05:09:29;;;;;;;29.53;18.43;;;;;;;8.85;100.00;98689.81;5073240;28;20209;-60
2021/10/12 05:11:56;;;;;;;27.57;18.13;;;;;;;8.89;100.00;98684.31;5073144;28;20242;-60
2021/10/12 05:14:22;;;;;;;28.57;18.77;;;;;;;8.89;100.00;98691.34;5072972;28;20222;-60
2021/10/12 05:16:49;;;;;;;30.53;18.97;;;;;;;8.89;100.00;98694.00;5073094;28;20218;-59
2021/10/12 05:19:16;;;;;;;29.97;18.57;;;;;;;8.91;100.00;98689.47;5070599;28;20223;-60
2021/10/12 05:21:44;;;;;;;32.97;20.57;;;;;;;8.92;100.00;98689.41;5072926;28;20218;-60
2021/10/12 05:24:10;;;;;;;33.43;20.27;;;;;;;8.92;100.00;98692.03;5072878;28;20577;-60
2021/10/12 05:26:37;;;;;;;31.43;18.87;;;;;;;8.95;100.00;98685.75;5072737;28;20702;-60
2021/10/12 05:29:03;;;;;;;32.93;20.83;;;;;;;8.91;100.00;98679.78;5073066;28;20209;-59
2021/10/12 05:31:30;;;;;;;33.80;21.03;;;;;;;8.96;100.00;98684.81;5072867;28;20220;-59
2021/10/12 05:33:56;;;;;;;33.50;21.07;;;;;;;8.97;100.00;98679.47;5072970;28;20218;-58
2021/10/12 05:36:23;;;;;;;32.83;20.67;;;;;;;8.98;100.00;98673.25;5072601;28;20222;-59
2021/10/12 05:38:51;;;;;;;39.30;22.27;;;;;;;8.99;100.00;98674.94;5072902;28;20222;-60
2021/10/12 05:41:17;;;;;;;36.77;23.17;;;;;;;8.99;100.00;98671.47;5072861;28;20218;-59
2021/10/12 05:43:44;;;;;;;37.47;22.37;;;;;;;8.98;100.00;98669.75;5070736;28;20217;-59
2021/10/12 05:46:10;;;;;;;37.30;22.43;;;;;;;9.00;100.00;98662.63;5072966;28;20653;-59
2021/10/12 05:48:37;;;;;;;36.20;21.47;;;;;;;9.01;100.00;98653.78;5072482;28;20687;-59
2021/10/12 05:51:03;;;;;;;36.97;23.00;;;;;;;9.00;100.00;98662.63;5072815;28;20218;-59
2021/10/12 05:53:32;;;;;;;35.87;22.40;;;;;;;8.98;100.00;98660.06;5070025;28;20322;-59
2021/10/12 05:56:06;;;;;;;35.43;21.50;;;;;;;8.99;100.00;98655.66;5072548;28;20230;-59
2021/10/12 05:58:42;;;;;;;35.90;20.73;;;;;;;8.97;100.00;98668.06;5072544;28;20214;-59
2021/10/12 06:01:09;;;;;;;34.40;20.77;;;;;;;8.98;100.00;98669.75;5072668;28;20224;-59
2021/10/12 06:03:35;;;;;;;36.40;21.13;;;;;;;8.97;100.00;98668.06;5072609;28;20601;-59
2021/10/12 06:06:02;;;;;;;36.17;20.77;;;;;;;8.96;100.00;98666.34;5061672;28;20574;-59
2021/10/12 06:08:30;;;;;;;36.53;21.03;;;;;;;8.95;100.00;98669.94;5072679;28;20244;-59
2021/10/12 06:10:56;;;;;;;36.10;21.00;;;;;;;8.97;100.00;98673.31;5070880;28;20223;-59
2021/10/12 06:13:24;;;;;;;34.37;21.13;;;;;;;9.00;100.00;98675.81;5071416;28;20241;-59
2021/10/12 06:15:51;;;;;;;34.13;20.00;;;;;;;9.04;100.00;98669.41;5072101;28;20239;-59
2021/10/12 06:18:19;;;;;;;32.33;18.93;;;;;;;9.08;100.00;98669.19;5072125;28;20673;-57
2021/10/12 06:20:45;;;;;;;34.67;20.87;;;;;;;9.11;100.00;98665.53;5072539;28;20219;-58
2021/10/12 06:23:12;;;;;;;34.47;20.80;;;;;;;9.12;100.00;98668.06;5072477;28;20218;-57
2021/10/12 06:25:39;;;;;;;32.00;20.43;;;;;;;9.18;100.00;98669.53;5072394;28;20225;-57
2021/10/12 06:28:06;;;;;;;32.90;20.57;;;;;;;9.23;100.00;98664.88;5072302;28;20632;-57
2021/10/12 06:30:34;;;;;;;32.07;20.10;;;;;;;9.23;100.00;98664.88;5073112;28;20235;-58
2021/10/12 06:33:01;;;;;;;29.10;19.53;;;;;;;9.26;100.00;98664.69;5076008;28;20602;-57
2021/10/12 06:35:29;;;;;;;33.67;20.17;;;;;;;9.25;100.00;98669.09;5074652;28;20213;-56
2021/10/12 06:37:57;;;;;;;31.13;19.07;;;;;;;9.27;100.00;98671.66;5075990;28;20238;-57
2021/10/12 06:40:23;;;;;;;30.90;18.67;;;;;;;9.25;100.00;98674.38;5076115;28;20218;-56
2021/10/12 06:42:50;;;;;;;29.57;19.00;;;;;;;9.28;100.00;98675.97;5075964;28;20238;-54
2021/10/12 06:45:17;;;;;;;30.67;19.13;;;;;;;9.29;100.00;98673.28;5075865;28;20219;-57
2021/10/12 06:47:45;;;;;;;29.30;19.07;;;;;;;9.28;100.00;98674.22;5076083;28;20380;-58
2021/10/12 06:50:11;;;;;;;30.00;18.03;;;;;;;9.33;100.00;98677.44;5075463;28;20219;-58
2021/10/12 06:52:38;;;;;;;31.10;19.03;;;;;;;9.35;100.00;98674.72;5075578;28;20253;-56
2021/10/12 06:55:07;;;;;;;31.43;18.73;;;;;;;9.35;100.00;98669.44;5075454;28;20207;-57
2021/10/12 06:57:34;;;;;;;30.10;18.07;;;;;;;9.36;100.00;98676.44;5075618;28;20261;-55
2021/10/12 07:00:00;;;;;;;30.27;19.00;;;;;;;9.36;100.00;98673.78;5075699;28;20222;-57
2021/10/12 07:02:27;;;;;;;32.40;19.10;;;;;;;9.38;100.00;98671.91;5073772;28;20219;-58
2021/10/12 07:04:54;;;;;;;31.17;19.80;;;;;;;9.37;100.00;98667.56;5072821;28;20226;-58
2021/10/12 07:07:21;;;;;;;28.30;17.77;;;;;;;9.38;100.00;98677.19;5075535;28;20218;-58
2021/10/12 07:09:47;;;;;;;29.93;18.80;;;;;;;9.40;100.00;98668.25;5075046;28;20216;-58
2021/10/12 07:12:14;;;;;;;29.23;19.40;;;;;;;9.39;100.00;98666.56;5075388;28;20242;-58
2021/10/12 07:14:41;;;;;;;28.90;17.97;;;;;;;9.42;100.00;98665.53;5074934;28;20735;-58
2021/10/12 07:17:07;;;;;;;29.13;18.43;;;;;;;9.46;100.00;98664.41;5075389;28;20218;-56
2021/10/12 07:19:34;;;;;;;29.37;18.47;;;;;;;9.50;100.00;98669.44;5075218;28;20611;-58
2021/10/12 07:22:02;;;;;;;29.07;18.13;;;;;;;9.51;100.00;98667.66;5074891;28;20703;-58
2021/10/12 07:24:28;;;;;;;31.00;18.33;;;;;;;9.57;100.00;98662.88;5074916;28;20223;-59
2021/10/12 07:26:55;;;;;;;27.53;18.37;;;;;;;9.63;100.00;98659.91;5072255;28;20223;-60
2021/10/12 07:29:22;;;;;;;29.30;18.50;;;;;;;9.72;100.00;98663.81;5073394;28;20221;-60
2021/10/12 07:31:49;;;;;;;26.13;17.20;;;;;;;9.79;100.00;98665.16;5074925;28;20209;-60
2021/10/12 07:34:15;;;;;;;24.57;16.03;;;;;;;9.86;100.00;98663.84;5074668;28;20235;-60
2021/10/12 07:36:42;;;;;;;25.57;16.20;;;;;;;9.94;100.00;98664.25;5075034;28;20217;-60
2021/10/12 07:39:10;;;;;;;22.83;15.20;;;;;;;10.00;100.00;98669.16;5074914;28;20586;-60
2021/10/12 07:41:37;;;;;;;23.93;15.07;;;;;;;10.04;100.00;98660.16;5074874;28;20222;-60
2021/10/12 07:44:05;;;;;;;24.60;16.00;;;;;;;10.06;100.00;98666.19;5074498;28;20220;-60
2021/10/12 07:46:32;;;;;;;23.97;15.70;;;;;;;10.08;100.00;98672.22;5072138;28;20217;-60
2021/10/12 07:48:59;;;;;;;22.40;15.13;;;;;;;10.08;100.00;98666.94;5074850;28;20227;-60
2021/10/12 07:51:26;;;;;;;21.57;14.30;;;;;;;10.12;100.00;98665.84;5074495;28;20707;-60
2021/10/12 07:53:53;;;;;;;20.40;14.17;;;;;;;10.16;100.00;98672.66;5072997;28;20228;-60
2021/10/12 07:56:35;;;;;;;20.30;13.83;;;;;;;10.17;100.00;98674.34;5074694;28;20223;-60
2021/10/12 07:59:02;;;;;;;21.13;14.67;;;;;;;10.21;100.00;98673.25;5074354;28;20277;-60
2021/10/12 08:01:28;;;;;;;18.83;12.90;;;;;;;10.26;100.00;98665.88;5074523;28;20218;-61
2021/10/12 08:03:55;;;;;;;20.13;13.60;;;;;;;10.37;100.00;98668.72;5070884;28;20213;-61
2021/10/12 08:06:21;;;;;;;19.53;12.60;;;;;;;10.43;100.00;98669.22;5070531;28;20216;-62
2021/10/12 08:08:48;;;;;;;18.13;13.00;;;;;;;10.50;100.00;98672.31;5074201;28;20216;-60
2021/10/12 08:11:16;;;;;;;19.77;14.07;;;;;;;10.54;100.00;98671.22;5074488;28;20213;-60
2021/10/12 08:13:45;;;;;;;20.37;12.60;;;;;;;10.49;100.00;98668.00;5074034;28;20239;-60
2021/10/12 08:16:17;;;;;;;16.83;12.27;;;;;;;10.46;100.00;98662.91;5073680;28;20255;-61
2021/10/12 08:18:44;;;;;;;19.40;13.43;;;;;;;10.46;100.00;98652.34;5074058;28;20255;-60
2021/10/12 08:21:10;;;;;;;22.43;13.97;;;;;;;10.45;100.00;98655.94;5072274;28;20674;-60
2021/10/12 08:23:37;;;;;;;21.30;14.50;;;;;;;10.42;100.00;98656.09;5074066;28;20230;-60
2021/10/12 08:26:03;;;;;;;17.40;13.07;;;;;;;10.42;100.00;98650.81;5073927;28;20597;-61
2021/10/12 08:28:30;;;;;;;17.90;12.40;;;;;;;10.46;100.00;98652.34;5073573;28;20212;-60
2021/10/12 08:30:58;;;;;;;19.20;13.43;;;;;;;10.57;100.00;98649.88;5073894;28;20565;-61
2021/10/12 08:33:24;;;;;;;18.53;13.60;;;;;;;10.65;100.00;98637.06;5073779;28;20234;-60
2021/10/12 08:35:51;;;;;;;18.67;13.03;;;;;;;10.74;100.00;98641.75;5073754;28;20226;-61
2021/10/12 08:38:19;;;;;;;17.53;12.70;;;;;;;10.81;100.00;98632.50;5073844;28;20579;-61
2021/10/12 08:40:47;;;;;;;19.50;13.17;;;;;;;10.83;100.00;98626.16;5062732;28;20222;-61
2021/10/12 08:43:14;;;;;;;18.20;12.60;;;;;;;10.82;100.00;98621.00;5073661;28;20221;-61
2021/10/12 08:45:43;;;;;;;18.23;11.80;;;;;;;10.86;100.00;98625.13;5071720;28;20226;-62
2021/10/12 08:48:12;;;;;;;15.77;11.70;;;;;;;10.90;100.00;98621.34;5073283;28;20215;-61
2021/10/12 08:50:38;;;;;;;18.20;11.87;;;;;;;10.91;100.00;98631.84;5062134;28;20224;-61
2021/10/12 08:53:05;;;;;;;17.73;11.93;;;;;;;10.97;100.00;98627.97;5073105;28;20239;-62
2021/10/12 08:55:31;;;;;;;17.07;11.80;;;;;;;11.08;100.00;98625.50;5072591;28;20214;-62
2021/10/12 08:57:58;;;;;;;14.90;11.10;;;;;;;11.16;100.00;98633.78;5073355;28;20215;-62
2021/10/12 09:00:28;;;;;;;17.00;11.00;;;;;;;11.33;100.00;98630.91;5073364;28;20244;-63
2021/10/12 09:02:57;;;;;;;16.27;11.07;;;;;;;11.47;100.00;98638.81;5073352;28;20222;-63
2021/10/12 09:05:25;;;;;;;17.27;10.97;;;;;;;11.52;100.00;98634.06;5073484;28;20217;-62
2021/10/12 09:07:52;;;;;;;17.23;10.80;;;;;;;11.65;100.00;98638.50;5070508;28;20219;-61
2021/10/12 09:10:21;;;;;;;12.13;9.47;;;;;;;11.74;100.00;98637.06;5073054;28;20685;-63
2021/10/12 09:12:49;;;;;;;14.60;9.80;;;;;;;11.83;100.00;98636.44;5071378;28;20274;-62
2021/10/12 09:15:16;;;;;;;14.87;10.17;;;;;;;11.95;100.00;98628.53;5073007;28;20322;-63
2021/10/12 09:17:46;;;;;;;15.53;10.30;;;;;;;12.04;100.00;98624.44;5072997;28;20558;-63
2021/10/12 09:20:29;;;;;;;11.73;8.97;;;;;;;12.09;100.00;98622.28;5073349;28;20226;-63
2021/10/12 09:23:07;;;;;;;12.43;8.47;;;;;;;12.10;100.00;98622.19;5072801;28;20290;-63
2021/10/12 09:25:36;;;;;;;11.40;7.70;;;;;;;12.10;100.00;98613.41;5073177;28;20217;-62
2021/10/12 09:28:03;;;;;;;13.00;8.13;;;;;;;12.05;100.00;98605.75;5070843;28;20222;-62
2021/10/12 09:30:32;;;;;;;11.13;8.63;;;;;;;11.98;100.00;98606.28;5073036;28;20219;-62
2021/10/12 09:33:00;;;;;;;12.23;8.17;;;;;;;12.01;100.00;98599.00;5072658;28;20250;-63
2021/10/12 09:35:29;;;;;;;10.27;7.40;;;;;;;12.01;100.00;98596.34;5072765;28;20218;-63
2021/10/12 09:38:06;;;;;;;8.10;6.87;;;;;;;11.90;100.00;98587.41;5071031;28;20207;-62
2021/10/12 09:40:35;;;;;;;9.57;7.73;;;;;;;11.77;100.00;98589.16;5072695;28;20687;-62
2021/10/12 09:43:01;;;;;;;11.03;7.40;;;;;;;11.71;100.00;98585.16;5072909;28;20224;-63
2021/10/12 09:45:36;;;;;;;11.03;7.03;;;;;;;11.70;100.00;98583.44;5072635;28;20663;-62
2021/10/12 09:48:03;;;;;;;11.03;7.73;;;;;;;11.63;100.00;98583.94;5072888;28;20225;-62
2021/10/12 09:50:34;;;;;;;10.43;8.50;;;;;;;11.62;100.00;98579.63;5072549;28;20296;-62
2021/10/12 09:53:01;;;;;;;10.13;8.20;;;;;;;11.56;100.00;98577.34;5072860;28;20234;-62
2021/10/12 09:55:37;;;;;;;12.77;8.70;;;;;;;11.34;100.00;98584.97;5070142;28;20221;-62
2021/10/12 09:58:04;;;;;;;12.80;8.83;;;;;;;11.33;100.00;98578.00;5072668;28;20214;-62
2021/10/12 10:00:31;;;;;;;15.67;10.17;;;;;;;11.29;100.00;98580.00;5072715;28;20222;-62
2021/10/12 10:02:58;;;;;;;12.83;9.00;;;;;;;11.31;100.00;98569.31;5072657;28;20219;-62
2021/10/12 10:05:25;;;;;;;12.97;9.53;;;;;;;11.47;100.00;98564.69;5071598;28;20217;-62
2021/10/12 10:07:55;;;;;;;12.57;9.30;;;;;;;11.67;100.00;98575.69;5076285;28;20214;-62
2021/10/12 10:10:22;;;;;;;12.77;9.20;;;;;;;11.85;100.00;98565.66;5076313;28;20220;-62
2021/10/12 10:12:49;;;;;;;11.73;7.63;;;;;;;11.97;100.00;98572.78;5076139;28;20700;-63
2021/10/12 10:15:16;;;;;;;10.27;8.83;;;;;;;12.03;100.00;98569.72;5076240;28;20239;-62
2021/10/12 10:17:42;;;;;;;12.73;9.30;;;;;;;12.06;100.00;98558.94;5076402;28;20215;-63
2021/10/12 10:20:11;;;;;;;10.17;8.30;;;;;;;12.06;100.00;98558.94;5076284;28;20229;-62
2021/10/12 10:22:40;;;;;;;14.40;8.40;;;;;;;12.04;100.00;98556.38;5076324;28;20218;-63
2021/10/12 10:25:30;;;;;;;13.03;8.83;;;;;;;12.07;100.00;98555.31;5076293;28;20219;-63
2021/10/12 10:27:58;;;;;;;11.57;7.90;;;;;;;12.13;100.00;98544.31;5066323;28;20226;-62
2021/10/12 10:30:30;;;;;;;9.20;7.33;;;;;;;12.34;100.00;98533.06;5074350;28;20680;-62
2021/10/12 10:32:59;;;;;;;10.50;7.83;;;;;;;12.57;100.00;98528.78;5075996;28;20583;-62
2021/10/12 10:35:37;;;;;;;11.63;7.50;;;;;;;12.89;100.00;98533.50;5076154;28;20217;-62
2021/10/12 10:38:27;;;;;;;9.03;6.27;;;;;;;13.15;100.00;98531.63;5075804;28;20217;-62
2021/10/12 10:41:24;;;;;;;11.90;6.57;;;;;;;13.07;100.00;98524.22;5075972;28;20260;-62
2021/10/12 10:43:59;;;;;;;9.43;5.60;;;;;;;12.84;100.00;98524.19;5065725;28;20211;-62
2021/10/12 10:46:44;;;;;;;10.63;6.13;;;;;;;12.67;100.00;98525.41;5075939;28;20225;-62
2021/10/12 10:49:16;;;;;;;7.10;6.33;;;;;;;12.52;98.94;98526.47;5074631;28;20216;-63
2021/10/12 10:51:47;;;;;;;9.07;6.23;;;;;;;12.42;100.00;98513.97;5065194;28;20218;-63
2021/10/12 10:55:02;;;;;;;9.00;6.23;;;;;;;12.42;100.00;98522.75;5075538;28;20707;-63
2021/10/12 10:57:31;;;;;;;8.40;6.07;;;;;;;12.44;100.00;98506.75;5073336;28;20225;-63
2021/10/12 11:00:26;;;;;;;9.20;6.17;;;;;;;12.38;100.00;98508.03;5075486;28;20222;-62
2021/10/12 11:02:54;;;;;;;9.17;5.43;;;;;;;12.24;100.00;98509.97;5075552;28;20219;-63
2021/10/12 11:05:34;;;;;;;11.50;6.50;;;;;;;12.08;100.00;98514.63;5075394;28;20215;-63
2021/10/12 11:08:09;;;;;;;8.03;6.47;;;;;;;12.01;100.00;98513.34;5075585;28;20585;-63
2021/10/12 11:10:35;;;;;;;10.23;7.23;;;;;;;11.93;100.00;98505.09;5075229;28;20211;-62
2021/10/12 11:13:03;;;;;;;11.13;7.33;;;;;;;11.96;100.00;98499.56;5075407;28;20220;-62
2021/10/12 11:15:30;;;;;;;9.20;6.70;;;;;;;12.08;100.00;98496.06;5075042;28;20254;-62
2021/10/12 11:18:06;;;;;;;9.87;6.77;;;;;;;12.29;100.00;98491.94;5074085;28;20782;-62
2021/10/12 11:20:41;;;;;;;7.37;5.87;;;;;;;12.42;100.00;98483.00;5075313;28;20587;-62